sensor_id;sensor_type;location;lat;lon;timestamp;P1;durP1;ratioP1;P2;durP2;ratioP2
61638;SDS011;47544;52.484;4.658;2023-07-22T00:00:08;7.35;;;4.63;;
61638;SDS011;47544;52.484;4.658;2023-07-22T00:00:27;7.57;;;4.25;;
61638;SDS011;47544;52.484;4.658;2023-07-22T00:00:47;7.05;;;4.30;;
61638;SDS011;47544;52.484;4.658;2023-07-22T00:01:02;6.82;;;4.70;;
61638;SDS011;47544;52.484;4.658;2023-07-22T00:01:13;7.20;;;4.80;;
61638;SDS011;47544;52.484;4.658;2023-07-22T00:01:24;7.20;;;4.90;;
61638;SDS011;47544;52.484;4.658;2023-07-22T00:01:35;7.68;;;4.97;;
61638;SDS011;47544;52.484;4.658;2023-07-22T00:01:49;8.30;;;5.20;;
61638;SDS011;47544;52.484;4.658;2023-07-22T00:02:00;7.78;;;4.95;;
61638;SDS011;47544;52.484;4.658;2023-07-22T00:02:10;8.63;;;4.85;;
61638;SDS011;47544;52.484;4.658;2023-07-22T00:02:23;8.65;;;4.93;;
61638;SDS011;47544;52.484;4.658;2023-07-22T00:02:34;9.32;;;5.18;;
61638;SDS011;47544;52.484;4.658;2023-07-22T00:02:45;8.88;;;5.10;;
61638;SDS011;47544;52.484;4.658;2023-07-22T00:02:58;8.65;;;5.00;;
61638;SDS011;47544;52.484;4.658;2023-07-22T00:03:11;7.82;;;5.22;;
61638;SDS011;47544;52.484;4.658;2023-07-22T00:03:22;8.45;;;5.28;;
61638;SDS011;47544;52.484;4.658;2023-07-22T00:03:33;8.15;;;5.03;;
61638;SDS011;47544;52.484;4.658;2023-07-22T00:03:45;7.90;;;4.82;;
61638;SDS011;47544;52.484;4.658;2023-07-22T00:03:56;7.90;;;4.80;;
61638;SDS011;47544;52.484;4.658;2023-07-22T00:04:07;7.72;;;4.80;;
61638;SDS011;47544;52.484;4.658;2023-07-22T00:04:18;8.32;;;4.70;;
61638;SDS011;47544;52.484;4.658;2023-07-22T00:04:29;9.30;;;4.70;;
61638;SDS011;47544;52.484;4.658;2023-07-22T00:04:42;9.43;;;4.97;;
61638;SDS011;47544;52.484;4.658;2023-07-22T00:04:54;8.63;;;4.93;;
61638;SDS011;47544;52.484;4.658;2023-07-22T00:05:07;8.13;;;5.05;;
61638;SDS011;47544;52.484;4.658;2023-07-22T00:05:19;7.78;;;4.88;;
61638;SDS011;47544;52.484;4.658;2023-07-22T00:05:33;8.25;;;5.05;;
61638;SDS011;47544;52.484;4.658;2023-07-22T00:05:46;8.50;;;5.22;;
61638;SDS011;47544;52.484;4.658;2023-07-22T00:06:04;8.30;;;5.20;;
61638;SDS011;47544;52.484;4.658;2023-07-22T00:06:18;9.60;;;5.07;;
61638;SDS011;47544;52.484;4.658;2023-07-22T00:06:29;10.32;;;5.15;;
61638;SDS011;47544;52.484;4.658;2023-07-22T00:06:42;9.85;;;5.20;;
61638;SDS011;47544;52.484;4.658;2023-07-22T00:06:54;9.75;;;5.50;;
61638;SDS011;47544;52.484;4.658;2023-07-22T00:07:05;9.43;;;5.60;;
61638;SDS011;47544;52.484;4.658;2023-07-22T00:07:16;9.35;;;5.50;;
61638;SDS011;47544;52.484;4.658;2023-07-22T00:07:28;8.38;;;5.30;;
61638;SDS011;47544;52.484;4.658;2023-07-22T00:07:39;8.13;;;5.28;;
61638;SDS011;47544;52.484;4.658;2023-07-22T00:07:51;8.83;;;5.20;;
61638;SDS011;47544;52.484;4.658;2023-07-22T00:08:02;8.80;;;5.10;;
61638;SDS011;47544;52.484;4.658;2023-07-22T00:08:13;7.85;;;5.05;;
61638;SDS011;47544;52.484;4.658;2023-07-22T00:08:26;8.32;;;5.15;;
61638;SDS011;47544;52.484;4.658;2023-07-22T00:08:37;7.78;;;5.32;;
61638;SDS011;47544;52.484;4.658;2023-07-22T00:08:50;8.48;;;5.35;;
61638;SDS011;47544;52.484;4.658;2023-07-22T00:09:02;8.02;;;5.03;;
61638;SDS011;47544;52.484;4.658;2023-07-22T00:09:13;7.90;;;5.03;;
61638;SDS011;47544;52.484;4.658;2023-07-22T00:09:24;8.48;;;5.00;;
61638;SDS011;47544;52.484;4.658;2023-07-22T00:09:35;8.70;;;5.00;;
61638;SDS011;47544;52.484;4.658;2023-07-22T00:09:46;9.27;;;4.97;;
61638;SDS011;47544;52.484;4.658;2023-07-22T00:10:00;8.57;;;5.07;;
61638;SDS011;47544;52.484;4.658;2023-07-22T00:10:11;8.00;;;5.03;;
61638;SDS011;47544;52.484;4.658;2023-07-22T00:10:22;7.45;;;4.95;;
61638;SDS011;47544;52.484;4.658;2023-07-22T00:10:33;8.13;;;4.82;;
61638;SDS011;47544;52.484;4.658;2023-07-22T00:10:44;8.05;;;4.63;;
61638;SDS011;47544;52.484;4.658;2023-07-22T00:10:56;8.77;;;4.95;;
61638;SDS011;47544;52.484;4.658;2023-07-22T00:11:07;8.35;;;5.03;;
61638;SDS011;47544;52.484;4.658;2023-07-22T00:11:18;9.80;;;5.35;;
61638;SDS011;47544;52.484;4.658;2023-07-22T00:11:30;9.65;;;5.45;;
61638;SDS011;47544;52.484;4.658;2023-07-22T00:11:41;10.02;;;5.88;;
61638;SDS011;47544;52.484;4.658;2023-07-22T00:11:52;9.15;;;5.90;;
61638;SDS011;47544;52.484;4.658;2023-07-22T00:12:04;9.07;;;5.32;;
61638;SDS011;47544;52.484;4.658;2023-07-22T00:12:18;9.13;;;4.75;;
61638;SDS011;47544;52.484;4.658;2023-07-22T00:12:30;8.95;;;4.65;;
61638;SDS011;47544;52.484;4.658;2023-07-22T00:12:43;8.80;;;4.82;;
61638;SDS011;47544;52.484;4.658;2023-07-22T00:12:54;9.90;;;4.93;;
61638;SDS011;47544;52.484;4.658;2023-07-22T00:13:05;9.65;;;4.97;;
61638;SDS011;47544;52.484;4.658;2023-07-22T00:13:18;9.45;;;5.20;;
61638;SDS011;47544;52.484;4.658;2023-07-22T00:13:29;8.52;;;5.30;;
61638;SDS011;47544;52.484;4.658;2023-07-22T00:13:43;8.13;;;5.07;;
61638;SDS011;47544;52.484;4.658;2023-07-22T00:13:59;8.57;;;5.07;;
61638;SDS011;47544;52.484;4.658;2023-07-22T00:14:12;9.73;;;5.43;;
61638;SDS011;47544;52.484;4.658;2023-07-22T00:14:23;9.90;;;5.65;;
61638;SDS011;47544;52.484;4.658;2023-07-22T00:14:35;10.00;;;5.35;;
61638;SDS011;47544;52.484;4.658;2023-07-22T00:14:46;9.68;;;5.38;;
61638;SDS011;47544;52.484;4.658;2023-07-22T00:14:57;9.20;;;5.30;;
61638;SDS011;47544;52.484;4.658;2023-07-22T00:15:09;9.48;;;5.10;;
61638;SDS011;47544;52.484;4.658;2023-07-22T00:15:22;8.30;;;4.85;;
61638;SDS011;47544;52.484;4.658;2023-07-22T00:15:34;7.47;;;4.72;;
61638;SDS011;47544;52.484;4.658;2023-07-22T00:15:45;8.23;;;4.70;;
61638;SDS011;47544;52.484;4.658;2023-07-22T00:15:57;8.98;;;4.82;;
61638;SDS011;47544;52.484;4.658;2023-07-22T00:16:09;9.27;;;4.93;;
61638;SDS011;47544;52.484;4.658;2023-07-22T00:16:22;9.73;;;5.05;;
61638;SDS011;47544;52.484;4.658;2023-07-22T00:16:48;8.55;;;5.30;;
61638;SDS011;47544;52.484;4.658;2023-07-22T00:16:59;8.80;;;5.28;;
61638;SDS011;47544;52.484;4.658;2023-07-22T00:17:10;8.60;;;5.00;;
61638;SDS011;47544;52.484;4.658;2023-07-22T00:17:23;8.98;;;4.95;;
61638;SDS011;47544;52.484;4.658;2023-07-22T00:17:35;8.73;;;5.10;;
61638;SDS011;47544;52.484;4.658;2023-07-22T00:17:46;8.15;;;5.15;;
61638;SDS011;47544;52.484;4.658;2023-07-22T00:18:12;7.68;;;4.97;;
61638;SDS011;47544;52.484;4.658;2023-07-22T00:18:24;7.75;;;4.75;;
61638;SDS011;47544;52.484;4.658;2023-07-22T00:18:35;7.50;;;4.45;;
61638;SDS011;47544;52.484;4.658;2023-07-22T00:18:47;6.82;;;4.20;;
61638;SDS011;47544;52.484;4.658;2023-07-22T00:18:58;7.07;;;4.50;;
61638;SDS011;47544;52.484;4.658;2023-07-22T00:19:10;6.82;;;4.78;;
61638;SDS011;47544;52.484;4.658;2023-07-22T00:19:21;7.68;;;4.78;;
61638;SDS011;47544;52.484;4.658;2023-07-22T00:19:36;7.68;;;4.60;;
61638;SDS011;47544;52.484;4.658;2023-07-22T00:19:50;8.18;;;4.68;;
61638;SDS011;47544;52.484;4.658;2023-07-22T00:20:01;8.25;;;5.00;;
61638;SDS011;47544;52.484;4.658;2023-07-22T00:20:15;7.57;;;4.90;;
61638;SDS011;47544;52.484;4.658;2023-07-22T00:20:29;7.03;;;4.80;;
61638;SDS011;47544;52.484;4.658;2023-07-22T00:20:43;7.63;;;4.90;;
61638;SDS011;47544;52.484;4.658;2023-07-22T00:20:57;7.20;;;4.47;;
61638;SDS011;47544;52.484;4.658;2023-07-22T00:21:08;6.68;;;4.43;;
61638;SDS011;47544;52.484;4.658;2023-07-22T00:21:19;6.35;;;4.38;;
61638;SDS011;47544;52.484;4.658;2023-07-22T00:21:30;6.63;;;4.40;;
61638;SDS011;47544;52.484;4.658;2023-07-22T00:21:41;6.80;;;4.30;;
61638;SDS011;47544;52.484;4.658;2023-07-22T00:21:53;6.65;;;4.45;;
61638;SDS011;47544;52.484;4.658;2023-07-22T00:22:04;6.68;;;4.45;;
61638;SDS011;47544;52.484;4.658;2023-07-22T00:22:16;7.03;;;4.72;;
61638;SDS011;47544;52.484;4.658;2023-07-22T00:22:27;7.55;;;4.70;;
61638;SDS011;47544;52.484;4.658;2023-07-22T00:22:40;8.10;;;4.78;;
61638;SDS011;47544;52.484;4.658;2023-07-22T00:22:51;7.95;;;4.82;;
61638;SDS011;47544;52.484;4.658;2023-07-22T00:23:02;7.57;;;4.85;;
61638;SDS011;47544;52.484;4.658;2023-07-22T00:23:13;7.50;;;4.80;;
61638;SDS011;47544;52.484;4.658;2023-07-22T00:23:26;8.25;;;4.85;;
61638;SDS011;47544;52.484;4.658;2023-07-22T00:23:37;8.38;;;5.13;;
61638;SDS011;47544;52.484;4.658;2023-07-22T00:23:49;8.38;;;5.15;;
61638;SDS011;47544;52.484;4.658;2023-07-22T00:24:01;7.80;;;4.95;;
61638;SDS011;47544;52.484;4.658;2023-07-22T00:24:14;6.97;;;4.38;;
61638;SDS011;47544;52.484;4.658;2023-07-22T00:24:25;7.55;;;4.35;;
61638;SDS011;47544;52.484;4.658;2023-07-22T00:24:36;8.18;;;4.60;;
61638;SDS011;47544;52.484;4.658;2023-07-22T00:24:47;9.07;;;4.87;;
61638;SDS011;47544;52.484;4.658;2023-07-22T00:24:59;9.43;;;4.55;;
61638;SDS011;47544;52.484;4.658;2023-07-22T00:25:11;10.25;;;4.55;;
61638;SDS011;47544;52.484;4.658;2023-07-22T00:25:22;9.98;;;4.78;;
61638;SDS011;47544;52.484;4.658;2023-07-22T00:25:33;9.60;;;4.70;;
61638;SDS011;47544;52.484;4.658;2023-07-22T00:25:47;8.43;;;4.38;;
61638;SDS011;47544;52.484;4.658;2023-07-22T00:26:00;9.68;;;4.45;;
61638;SDS011;47544;52.484;4.658;2023-07-22T00:26:11;9.07;;;4.57;;
61638;SDS011;47544;52.484;4.658;2023-07-22T00:26:22;8.30;;;4.63;;
61638;SDS011;47544;52.484;4.658;2023-07-22T00:26:33;7.43;;;4.47;;
61638;SDS011;47544;52.484;4.658;2023-07-22T00:26:44;7.82;;;4.75;;
61638;SDS011;47544;52.484;4.658;2023-07-22T00:26:55;7.90;;;4.90;;
61638;SDS011;47544;52.484;4.658;2023-07-22T00:27:06;8.00;;;4.82;;
61638;SDS011;47544;52.484;4.658;2023-07-22T00:27:19;8.13;;;4.85;;
61638;SDS011;47544;52.484;4.658;2023-07-22T00:27:30;8.82;;;4.97;;
61638;SDS011;47544;52.484;4.658;2023-07-22T00:27:42;8.63;;;5.05;;
61638;SDS011;47544;52.484;4.658;2023-07-22T00:27:54;8.25;;;4.57;;
61638;SDS011;47544;52.484;4.658;2023-07-22T00:28:05;8.10;;;4.53;;
61638;SDS011;47544;52.484;4.658;2023-07-22T00:28:16;8.55;;;4.60;;
61638;SDS011;47544;52.484;4.658;2023-07-22T00:28:30;8.77;;;4.85;;
61638;SDS011;47544;52.484;4.658;2023-07-22T00:28:41;8.77;;;5.18;;
61638;SDS011;47544;52.484;4.658;2023-07-22T00:28:54;9.75;;;5.25;;
61638;SDS011;47544;52.484;4.658;2023-07-22T00:29:05;8.70;;;4.78;;
61638;SDS011;47544;52.484;4.658;2023-07-22T00:29:16;8.80;;;4.70;;
61638;SDS011;47544;52.484;4.658;2023-07-22T00:29:27;8.00;;;4.53;;
61638;SDS011;47544;52.484;4.658;2023-07-22T00:29:39;7.70;;;4.50;;
61638;SDS011;47544;52.484;4.658;2023-07-22T00:29:50;7.57;;;4.50;;
61638;SDS011;47544;52.484;4.658;2023-07-22T00:30:01;7.45;;;4.50;;
61638;SDS011;47544;52.484;4.658;2023-07-22T00:30:12;7.65;;;4.60;;
61638;SDS011;47544;52.484;4.658;2023-07-22T00:30:31;8.93;;;4.32;;
61638;SDS011;47544;52.484;4.658;2023-07-22T00:30:42;8.52;;;4.22;;
61638;SDS011;47544;52.484;4.658;2023-07-22T00:30:53;6.72;;;4.35;;
61638;SDS011;47544;52.484;4.658;2023-07-22T00:31:05;6.70;;;4.25;;
61638;SDS011;47544;52.484;4.658;2023-07-22T00:31:20;7.72;;;4.22;;
61638;SDS011;47544;52.484;4.658;2023-07-22T00:31:32;7.75;;;4.22;;
61638;SDS011;47544;52.484;4.658;2023-07-22T00:31:46;6.93;;;3.80;;
61638;SDS011;47544;52.484;4.658;2023-07-22T00:31:57;7.15;;;3.80;;
61638;SDS011;47544;52.484;4.658;2023-07-22T00:32:08;7.28;;;4.13;;
61638;SDS011;47544;52.484;4.658;2023-07-22T00:32:19;6.78;;;4.10;;
61638;SDS011;47544;52.484;4.658;2023-07-22T00:32:30;7.22;;;4.20;;
61638;SDS011;47544;52.484;4.658;2023-07-22T00:32:41;8.15;;;4.57;;
61638;SDS011;47544;52.484;4.658;2023-07-22T00:32:55;8.63;;;4.70;;
61638;SDS011;47544;52.484;4.658;2023-07-22T00:33:07;7.47;;;4.47;;
61638;SDS011;47544;52.484;4.658;2023-07-22T00:33:19;8.35;;;4.47;;
61638;SDS011;47544;52.484;4.658;2023-07-22T00:33:31;8.18;;;4.40;;
61638;SDS011;47544;52.484;4.658;2023-07-22T00:33:50;7.95;;;4.70;;
61638;SDS011;47544;52.484;4.658;2023-07-22T00:34:03;8.15;;;4.85;;
61638;SDS011;47544;52.484;4.658;2023-07-22T00:34:13;8.32;;;4.88;;
61638;SDS011;47544;52.484;4.658;2023-07-22T00:34:24;8.93;;;4.78;;
61638;SDS011;47544;52.484;4.658;2023-07-22T00:34:37;10.32;;;4.80;;
61638;SDS011;47544;52.484;4.658;2023-07-22T00:34:48;10.20;;;4.75;;
61638;SDS011;47544;52.484;4.658;2023-07-22T00:34:59;7.95;;;4.47;;
61638;SDS011;47544;52.484;4.658;2023-07-22T00:35:10;7.97;;;4.22;;
61638;SDS011;47544;52.484;4.658;2023-07-22T00:35:21;7.68;;;4.15;;
61638;SDS011;47544;52.484;4.658;2023-07-22T00:35:32;8.07;;;4.47;;
61638;SDS011;47544;52.484;4.658;2023-07-22T00:35:47;7.63;;;4.50;;
61638;SDS011;47544;52.484;4.658;2023-07-22T00:36:01;6.72;;;4.22;;
61638;SDS011;47544;52.484;4.658;2023-07-22T00:36:12;7.30;;;4.40;;
61638;SDS011;47544;52.484;4.658;2023-07-22T00:36:24;7.47;;;4.57;;
61638;SDS011;47544;52.484;4.658;2023-07-22T00:36:37;7.25;;;4.53;;
61638;SDS011;47544;52.484;4.658;2023-07-22T00:36:49;7.15;;;4.53;;
61638;SDS011;47544;52.484;4.658;2023-07-22T00:37:00;7.70;;;4.43;;
61638;SDS011;47544;52.484;4.658;2023-07-22T00:37:11;8.10;;;4.22;;
61638;SDS011;47544;52.484;4.658;2023-07-22T00:37:22;7.63;;;4.13;;
61638;SDS011;47544;52.484;4.658;2023-07-22T00:37:33;7.60;;;4.30;;
61638;SDS011;47544;52.484;4.658;2023-07-22T00:37:44;7.38;;;4.50;;
61638;SDS011;47544;52.484;4.658;2023-07-22T00:37:56;7.32;;;4.63;;
61638;SDS011;47544;52.484;4.658;2023-07-22T00:38:08;6.70;;;4.40;;
61638;SDS011;47544;52.484;4.658;2023-07-22T00:38:20;6.75;;;4.20;;
61638;SDS011;47544;52.484;4.658;2023-07-22T00:38:31;6.65;;;4.00;;
61638;SDS011;47544;52.484;4.658;2023-07-22T00:38:42;7.07;;;3.95;;
61638;SDS011;47544;52.484;4.658;2023-07-22T00:38:53;6.75;;;4.03;;
61638;SDS011;47544;52.484;4.658;2023-07-22T00:39:04;6.65;;;4.40;;
61638;SDS011;47544;52.484;4.658;2023-07-22T00:39:16;7.05;;;4.57;;
61638;SDS011;47544;52.484;4.658;2023-07-22T00:39:33;7.10;;;4.35;;
61638;SDS011;47544;52.484;4.658;2023-07-22T00:39:44;7.18;;;4.00;;
61638;SDS011;47544;52.484;4.658;2023-07-22T00:39:55;7.60;;;4.00;;
61638;SDS011;47544;52.484;4.658;2023-07-22T00:40:08;7.88;;;4.18;;
61638;SDS011;47544;52.484;4.658;2023-07-22T00:40:22;7.07;;;4.10;;
61638;SDS011;47544;52.484;4.658;2023-07-22T00:40:33;6.75;;;4.00;;
61638;SDS011;47544;52.484;4.658;2023-07-22T00:40:44;7.32;;;4.10;;
61638;SDS011;47544;52.484;4.658;2023-07-22T00:40:55;8.23;;;4.22;;
61638;SDS011;47544;52.484;4.658;2023-07-22T00:41:09;8.00;;;4.30;;
61638;SDS011;47544;52.484;4.658;2023-07-22T00:41:22;7.25;;;4.20;;
61638;SDS011;47544;52.484;4.658;2023-07-22T00:41:34;6.28;;;4.20;;
61638;SDS011;47544;52.484;4.658;2023-07-22T00:41:45;6.57;;;4.13;;
61638;SDS011;47544;52.484;4.658;2023-07-22T00:41:56;7.32;;;4.47;;
61638;SDS011;47544;52.484;4.658;2023-07-22T00:42:07;7.63;;;4.75;;
61638;SDS011;47544;52.484;4.658;2023-07-22T00:42:19;7.15;;;4.88;;
61638;SDS011;47544;52.484;4.658;2023-07-22T00:42:31;7.18;;;4.75;;
61638;SDS011;47544;52.484;4.658;2023-07-22T00:42:42;6.97;;;4.60;;
61638;SDS011;47544;52.484;4.658;2023-07-22T00:42:56;7.10;;;4.68;;
61638;SDS011;47544;52.484;4.658;2023-07-22T00:43:07;8.45;;;4.90;;
61638;SDS011;47544;52.484;4.658;2023-07-22T00:43:19;9.32;;;4.78;;
61638;SDS011;47544;52.484;4.658;2023-07-22T00:43:30;9.05;;;4.80;;
61638;SDS011;47544;52.484;4.658;2023-07-22T00:43:49;7.80;;;4.47;;
61638;SDS011;47544;52.484;4.658;2023-07-22T00:44:00;8.68;;;4.68;;
61638;SDS011;47544;52.484;4.658;2023-07-22T00:44:13;8.63;;;4.68;;
61638;SDS011;47544;52.484;4.658;2023-07-22T00:44:24;6.95;;;4.57;;
61638;SDS011;47544;52.484;4.658;2023-07-22T00:44:35;7.07;;;4.35;;
61638;SDS011;47544;52.484;4.658;2023-07-22T00:44:47;8.02;;;4.70;;
61638;SDS011;47544;52.484;4.658;2023-07-22T00:44:59;8.80;;;4.82;;
61638;SDS011;47544;52.484;4.658;2023-07-22T00:45:10;7.10;;;4.32;;
61638;SDS011;47544;52.484;4.658;2023-07-22T00:45:24;7.60;;;4.28;;
61638;SDS011;47544;52.484;4.658;2023-07-22T00:45:35;7.65;;;4.38;;
61638;SDS011;47544;52.484;4.658;2023-07-22T00:45:47;6.75;;;4.00;;
61638;SDS011;47544;52.484;4.658;2023-07-22T00:45:58;6.70;;;3.80;;
61638;SDS011;47544;52.484;4.658;2023-07-22T00:46:09;7.28;;;4.05;;
61638;SDS011;47544;52.484;4.658;2023-07-22T00:46:20;7.28;;;4.00;;
61638;SDS011;47544;52.484;4.658;2023-07-22T00:46:32;7.07;;;4.10;;
61638;SDS011;47544;52.484;4.658;2023-07-22T00:46:43;6.82;;;4.03;;
61638;SDS011;47544;52.484;4.658;2023-07-22T00:46:54;6.75;;;4.18;;
61638;SDS011;47544;52.484;4.658;2023-07-22T00:47:07;7.47;;;4.25;;
61638;SDS011;47544;52.484;4.658;2023-07-22T00:47:19;7.18;;;4.18;;
61638;SDS011;47544;52.484;4.658;2023-07-22T00:47:30;7.03;;;4.10;;
61638;SDS011;47544;52.484;4.658;2023-07-22T00:47:44;5.90;;;3.78;;
61638;SDS011;47544;52.484;4.658;2023-07-22T00:47:55;5.50;;;3.30;;
61638;SDS011;47544;52.484;4.658;2023-07-22T00:48:06;7.25;;;3.38;;
61638;SDS011;47544;52.484;4.658;2023-07-22T00:48:18;8.13;;;3.80;;
61638;SDS011;47544;52.484;4.658;2023-07-22T00:48:30;7.63;;;4.30;;
61638;SDS011;47544;52.484;4.658;2023-07-22T00:48:41;6.90;;;4.22;;
61638;SDS011;47544;52.484;4.658;2023-07-22T00:48:53;6.85;;;4.07;;
61638;SDS011;47544;52.484;4.658;2023-07-22T00:49:04;7.40;;;4.00;;
61638;SDS011;47544;52.484;4.658;2023-07-22T00:49:19;7.50;;;4.22;;
61638;SDS011;47544;52.484;4.658;2023-07-22T00:49:30;6.85;;;4.30;;
61638;SDS011;47544;52.484;4.658;2023-07-22T00:49:41;7.18;;;4.32;;
61638;SDS011;47544;52.484;4.658;2023-07-22T00:49:52;7.63;;;4.40;;
61638;SDS011;47544;52.484;4.658;2023-07-22T00:50:05;7.32;;;4.20;;
61638;SDS011;47544;52.484;4.658;2023-07-22T00:50:18;6.93;;;3.97;;
61638;SDS011;47544;52.484;4.658;2023-07-22T00:50:29;6.60;;;4.00;;
61638;SDS011;47544;52.484;4.658;2023-07-22T00:50:42;6.85;;;4.30;;
61638;SDS011;47544;52.484;4.658;2023-07-22T00:50:55;7.07;;;4.28;;
61638;SDS011;47544;52.484;4.658;2023-07-22T00:51:08;7.78;;;4.50;;
61638;SDS011;47544;52.484;4.658;2023-07-22T00:51:19;7.18;;;4.50;;
61638;SDS011;47544;52.484;4.658;2023-07-22T00:51:32;6.88;;;4.50;;
61638;SDS011;47544;52.484;4.658;2023-07-22T00:51:44;7.63;;;4.60;;
61638;SDS011;47544;52.484;4.658;2023-07-22T00:51:56;7.75;;;4.60;;
61638;SDS011;47544;52.484;4.658;2023-07-22T00:52:10;6.82;;;3.95;;
61638;SDS011;47544;52.484;4.658;2023-07-22T00:52:21;7.30;;;4.00;;
61638;SDS011;47544;52.484;4.658;2023-07-22T00:52:33;8.55;;;4.22;;
61638;SDS011;47544;52.484;4.658;2023-07-22T00:52:44;8.65;;;4.38;;
61638;SDS011;47544;52.484;4.658;2023-07-22T00:52:55;8.98;;;4.45;;
61638;SDS011;47544;52.484;4.658;2023-07-22T00:53:06;7.63;;;4.30;;
61638;SDS011;47544;52.484;4.658;2023-07-22T00:53:18;6.63;;;4.43;;
61638;SDS011;47544;52.484;4.658;2023-07-22T00:53:29;6.90;;;4.55;;
61638;SDS011;47544;52.484;4.658;2023-07-22T00:53:40;7.90;;;4.57;;
61638;SDS011;47544;52.484;4.658;2023-07-22T00:53:51;8.52;;;4.13;;
61638;SDS011;47544;52.484;4.658;2023-07-22T00:54:02;8.18;;;3.78;;
61638;SDS011;47544;52.484;4.658;2023-07-22T00:54:15;7.18;;;3.95;;
61638;SDS011;47544;52.484;4.658;2023-07-22T00:54:27;7.35;;;4.03;;
61638;SDS011;47544;52.484;4.658;2023-07-22T00:54:39;7.10;;;3.88;;
61638;SDS011;47544;52.484;4.658;2023-07-22T00:54:50;6.20;;;3.65;;
61638;SDS011;47544;52.484;4.658;2023-07-22T00:55:01;6.40;;;3.70;;
61638;SDS011;47544;52.484;4.658;2023-07-22T00:55:12;7.20;;;4.07;;
61638;SDS011;47544;52.484;4.658;2023-07-22T00:55:26;7.10;;;4.15;;
61638;SDS011;47544;52.484;4.658;2023-07-22T00:55:38;7.10;;;4.28;;
61638;SDS011;47544;52.484;4.658;2023-07-22T00:55:50;8.13;;;4.25;;
61638;SDS011;47544;52.484;4.658;2023-07-22T00:56:03;7.47;;;4.05;;
61638;SDS011;47544;52.484;4.658;2023-07-22T00:56:15;6.95;;;4.25;;
61638;SDS011;47544;52.484;4.658;2023-07-22T00:56:26;6.72;;;4.32;;
61638;SDS011;47544;52.484;4.658;2023-07-22T00:56:37;6.60;;;4.20;;
61638;SDS011;47544;52.484;4.658;2023-07-22T00:56:49;6.28;;;4.00;;
61638;SDS011;47544;52.484;4.658;2023-07-22T00:57:00;6.13;;;3.80;;
61638;SDS011;47544;52.484;4.658;2023-07-22T00:57:11;6.75;;;3.95;;
61638;SDS011;47544;52.484;4.658;2023-07-22T00:57:22;7.68;;;4.15;;
61638;SDS011;47544;52.484;4.658;2023-07-22T00:57:33;8.20;;;4.28;;
61638;SDS011;47544;52.484;4.658;2023-07-22T00:57:44;8.15;;;4.22;;
61638;SDS011;47544;52.484;4.658;2023-07-22T00:57:56;7.13;;;4.07;;
61638;SDS011;47544;52.484;4.658;2023-07-22T00:58:10;7.75;;;4.30;;
61638;SDS011;47544;52.484;4.658;2023-07-22T00:58:21;8.27;;;4.50;;
61638;SDS011;47544;52.484;4.658;2023-07-22T00:58:32;9.00;;;4.50;;
61638;SDS011;47544;52.484;4.658;2023-07-22T00:58:44;8.23;;;4.40;;
61638;SDS011;47544;52.484;4.658;2023-07-22T00:58:55;7.95;;;4.43;;
61638;SDS011;47544;52.484;4.658;2023-07-22T00:59:09;7.15;;;4.60;;
61638;SDS011;47544;52.484;4.658;2023-07-22T00:59:22;7.13;;;4.55;;
61638;SDS011;47544;52.484;4.658;2023-07-22T00:59:33;6.78;;;4.53;;
61638;SDS011;47544;52.484;4.658;2023-07-22T00:59:45;7.80;;;4.65;;
61638;SDS011;47544;52.484;4.658;2023-07-22T00:59:56;7.93;;;4.75;;
61638;SDS011;47544;52.484;4.658;2023-07-22T01:00:10;7.57;;;4.53;;
61638;SDS011;47544;52.484;4.658;2023-07-22T01:00:23;6.88;;;4.32;;
61638;SDS011;47544;52.484;4.658;2023-07-22T01:00:41;6.88;;;4.32;;
61638;SDS011;47544;52.484;4.658;2023-07-22T01:00:54;7.30;;;4.40;;
61638;SDS011;47544;52.484;4.658;2023-07-22T01:01:05;7.35;;;4.35;;
61638;SDS011;47544;52.484;4.658;2023-07-22T01:01:17;7.57;;;4.30;;
61638;SDS011;47544;52.484;4.658;2023-07-22T01:01:28;7.20;;;4.38;;
61638;SDS011;47544;52.484;4.658;2023-07-22T01:01:40;7.32;;;4.53;;
61638;SDS011;47544;52.484;4.658;2023-07-22T01:01:52;7.47;;;4.75;;
61638;SDS011;47544;52.484;4.658;2023-07-22T01:02:04;7.40;;;4.55;;
61638;SDS011;47544;52.484;4.658;2023-07-22T01:02:17;8.20;;;4.60;;
61638;SDS011;47544;52.484;4.658;2023-07-22T01:02:29;7.70;;;4.47;;
61638;SDS011;47544;52.484;4.658;2023-07-22T01:02:41;6.88;;;4.47;;
61638;SDS011;47544;52.484;4.658;2023-07-22T01:02:52;7.10;;;4.40;;
61638;SDS011;47544;52.484;4.658;2023-07-22T01:03:04;7.18;;;4.45;;
61638;SDS011;47544;52.484;4.658;2023-07-22T01:03:15;7.63;;;4.60;;
61638;SDS011;47544;52.484;4.658;2023-07-22T01:03:30;6.97;;;4.72;;
61638;SDS011;47544;52.484;4.658;2023-07-22T01:03:42;6.55;;;4.57;;
61638;SDS011;47544;52.484;4.658;2023-07-22T01:03:53;6.32;;;4.40;;
61638;SDS011;47544;52.484;4.658;2023-07-22T01:04:04;6.20;;;4.20;;
61638;SDS011;47544;52.484;4.658;2023-07-22T01:04:16;6.07;;;3.85;;
61638;SDS011;47544;52.484;4.658;2023-07-22T01:04:32;6.43;;;3.58;;
61638;SDS011;47544;52.484;4.658;2023-07-22T01:04:44;6.45;;;3.50;;
61638;SDS011;47544;52.484;4.658;2023-07-22T01:04:55;6.40;;;3.40;;
61638;SDS011;47544;52.484;4.658;2023-07-22T01:05:08;6.03;;;3.58;;
61638;SDS011;47544;52.484;4.658;2023-07-22T01:05:21;6.75;;;3.92;;
61638;SDS011;47544;52.484;4.658;2023-07-22T01:05:32;6.18;;;3.92;;
61638;SDS011;47544;52.484;4.658;2023-07-22T01:05:44;6.68;;;3.83;;
61638;SDS011;47544;52.484;4.658;2023-07-22T01:05:56;7.18;;;3.60;;
61638;SDS011;47544;52.484;4.658;2023-07-22T01:06:10;7.43;;;3.40;;
61638;SDS011;47544;52.484;4.658;2023-07-22T01:06:22;7.03;;;3.33;;
61638;SDS011;47544;52.484;4.658;2023-07-22T01:06:35;7.30;;;3.67;;
61638;SDS011;47544;52.484;4.658;2023-07-22T01:06:47;6.68;;;3.83;;
61638;SDS011;47544;52.484;4.658;2023-07-22T01:07:14;7.07;;;4.13;;
61638;SDS011;47544;52.484;4.658;2023-07-22T01:07:26;6.03;;;3.80;;
61638;SDS011;47544;52.484;4.658;2023-07-22T01:07:37;6.47;;;3.90;;
61638;SDS011;47544;52.484;4.658;2023-07-22T01:07:54;6.57;;;4.05;;
61638;SDS011;47544;52.484;4.658;2023-07-22T01:08:06;6.78;;;4.28;;
61638;SDS011;47544;52.484;4.658;2023-07-22T01:08:17;6.78;;;4.18;;
61638;SDS011;47544;52.484;4.658;2023-07-22T01:08:28;6.47;;;4.00;;
61638;SDS011;47544;52.484;4.658;2023-07-22T01:08:39;6.13;;;3.97;;
61638;SDS011;47544;52.484;4.658;2023-07-22T01:08:51;6.90;;;4.20;;
61638;SDS011;47544;52.484;4.658;2023-07-22T01:09:02;7.72;;;4.47;;
61638;SDS011;47544;52.484;4.658;2023-07-22T01:09:18;7.55;;;4.40;;
61638;SDS011;47544;52.484;4.658;2023-07-22T01:09:33;6.80;;;4.13;;
61638;SDS011;47544;52.484;4.658;2023-07-22T01:09:45;5.78;;;3.78;;
61638;SDS011;47544;52.484;4.658;2023-07-22T01:09:57;6.10;;;3.88;;
61638;SDS011;47544;52.484;4.658;2023-07-22T01:10:10;6.55;;;3.95;;
61638;SDS011;47544;52.484;4.658;2023-07-22T01:10:21;6.90;;;4.13;;
61638;SDS011;47544;52.484;4.658;2023-07-22T01:10:35;6.80;;;4.10;;
61638;SDS011;47544;52.484;4.658;2023-07-22T01:10:46;6.57;;;4.13;;
61638;SDS011;47544;52.484;4.658;2023-07-22T01:10:57;7.53;;;4.60;;
61638;SDS011;47544;52.484;4.658;2023-07-22T01:11:09;7.72;;;4.55;;
61638;SDS011;47544;52.484;4.658;2023-07-22T01:11:21;7.18;;;4.38;;
61638;SDS011;47544;52.484;4.658;2023-07-22T01:11:32;6.90;;;4.30;;
61638;SDS011;47544;52.484;4.658;2023-07-22T01:11:43;6.97;;;4.25;;
61638;SDS011;47544;52.484;4.658;2023-07-22T01:11:54;8.02;;;4.50;;
61638;SDS011;47544;52.484;4.658;2023-07-22T01:12:08;8.07;;;4.60;;
61638;SDS011;47544;52.484;4.658;2023-07-22T01:12:20;7.03;;;4.38;;
61638;SDS011;47544;52.484;4.658;2023-07-22T01:12:33;6.90;;;4.13;;
61638;SDS011;47544;52.484;4.658;2023-07-22T01:12:45;7.18;;;4.20;;
61638;SDS011;47544;52.484;4.658;2023-07-22T01:12:58;6.85;;;4.28;;
61638;SDS011;47544;52.484;4.658;2023-07-22T01:13:10;6.97;;;4.15;;
61638;SDS011;47544;52.484;4.658;2023-07-22T01:13:21;7.45;;;4.18;;